aviador You're here:

LEBL Decoded Metar

BARCELONA in SPAIN
Report Time2018-06-20 17:00:00
UTC Time2018-06-20 17:19:47
Flight Rules vfr VFR
Wind160° at 04 kt
W.Decomp.*RWY 20: 3.1 kt HW 2.6 kt LCW
RWY 07: 4.0 kt RCW
W.Rank160° ranks 25
Current wind is below 160° avg. (6.2)
Visibility9999 m
Phenomena:N/A
Clouds:N/A
Expected CloudBase > 3,200 ft AGL from Temp-Dew spread
CeilingNone
Temp26°C (ISA +11)
Dew Point18°C (61% RH)
QNH1018 hPa
Density Alt1,401 ft
Elevation20 ft
Report Wrong Elevation
Raw Report
METAR LEBL 201700Z 16004KT 100V200 CAVOK 26/18 Q1018 NOSIG=

Extra information for LEBL:More info

Metar Taf Metar & Taf Last 4 Metars F.Rules Stats Wind Profile Meteogram Temp Stats Airport Information Weather charts Add Link Nearby VenuesMetar ALERT Operation Metar Decoded Social comments